St-Hubert, Belgium
Current Conditions -  °F | °C
As of 7:25 PM on Saturday 25 Oct 2014 (Local Time) from EBFS Reporting Station
Moderate Fog Moderate Fog  
Wind Chill: 50°   Ceiling: Unl
Heat Index: 50°   Visibility: 0.31mi
Dew Point: 50°   Wind: 3mph
Humidity: 100%   Direction: 200°SSW
Pressure: 30.18"   Gusts: NA
Location:  50.03°N, 5.4°E
Report Text: EBFS 251725Z 20003KT 0500 FG FEW001 SCT033 10/10 Q1022 RED
Loading
Personal Weather Stations






























Interactive Weather Map
Tropical Storm Tracking
New forecast layout! Learn more

10-Day Weather Forecast

Advertisements
Track Severe Weather on mobile